createdAt,value
2023-01-09T00:01:34.701Z,99264.59
2023-01-09T00:04:03.125Z,99262.34
2023-01-09T00:06:30.724Z,99269.87
2023-01-09T00:08:58.182Z,99271.06
2023-01-09T00:11:26.551Z,99280.91
2023-01-09T00:13:54.042Z,99273.28
2023-01-09T00:16:21.657Z,99265.91
2023-01-09T00:18:49.493Z,99268.78
2023-01-09T00:21:17.052Z,99262.88
2023-01-09T00:23:44.543Z,99262.50
2023-01-09T00:26:14.574Z,99259.19
2023-01-09T00:28:42.151Z,99260.88
2023-01-09T00:31:10.300Z,99253.66
2023-01-09T00:33:56.440Z,99248.47
2023-01-09T00:36:23.872Z,99246.19
2023-01-09T00:38:52.859Z,99253.66
2023-01-09T00:41:33.379Z,99249.78
2023-01-09T00:44:08.410Z,99246.56
2023-01-09T00:46:36.711Z,99249.69
2023-01-09T00:49:05.398Z,99250.22
2023-01-09T00:51:32.840Z,99236.81
2023-01-09T00:54:02.252Z,99243.56
2023-01-09T00:56:30.067Z,99239.91
2023-01-09T00:58:57.501Z,99241.41
2023-01-09T01:01:25.028Z,99230.13
2023-01-09T01:03:52.901Z,99235.69
2023-01-09T01:06:39.264Z,99229.09
2023-01-09T01:09:07.083Z,99233.03
2023-01-09T01:11:34.595Z,99225.75
2023-01-09T01:14:02.055Z,99221.63
2023-01-09T01:16:30.086Z,99222.28
2023-01-09T01:18:57.626Z,99221.84
2023-01-09T01:21:25.137Z,99226.47
2023-01-09T01:23:52.902Z,99219.91
2023-01-09T01:26:20.388Z,99220.25
2023-01-09T01:28:47.967Z,99215.25
2023-01-09T01:31:17.575Z,99213.78
2023-01-09T01:33:44.992Z,99214.53
2023-01-09T01:36:12.555Z,99202.63
2023-01-09T01:38:40.283Z,99194.88
2023-01-09T01:41:07.716Z,99191.34
2023-01-09T01:43:53.307Z,99187.69
2023-01-09T01:46:21.096Z,99180.31
2023-01-09T01:48:52.057Z,99179.66
2023-01-09T01:51:22.525Z,99177.94
2023-01-09T01:53:56.100Z,99173.19
2023-01-09T01:56:27.793Z,99166.16
2023-01-09T01:59:17.817Z,99180.31
2023-01-09T02:01:49.485Z,99159.41
2023-01-09T02:04:17.338Z,99157.19
2023-01-09T02:06:47.424Z,99158.69
2023-01-09T02:09:15.892Z,99161.34
2023-01-09T02:11:47.588Z,99150.31
2023-01-09T02:14:16.478Z,99144.25
2023-01-09T02:16:59.641Z,99148.44
2023-01-09T02:20:04.989Z,99146.00
2023-01-09T02:22:54.159Z,99137.41
2023-01-09T02:25:58.737Z,99129.78
2023-01-09T02:28:45.148Z,99129.75
2023-01-09T02:31:26.544Z,99126.88
2023-01-09T02:34:14.440Z,99127.06
2023-01-09T02:36:54.584Z,99135.34
2023-01-09T02:39:35.347Z,99130.34
2023-01-09T02:42:09.182Z,99132.75
2023-01-09T02:44:37.059Z,99124.91
2023-01-09T02:47:15.863Z,99119.13
2023-01-09T02:49:48.764Z,99120.12
2023-01-09T02:52:45.452Z,99109.31
2023-01-09T02:55:24.517Z,99116.97
2023-01-09T02:58:09.866Z,99107.47
2023-01-09T03:00:37.246Z,99104.63
2023-01-09T03:03:28.096Z,99093.28
2023-01-09T03:06:02.061Z,99083.69
2023-01-09T03:08:46.615Z,99089.09
2023-01-09T03:11:14.062Z,99095.97
2023-01-09T03:13:48.049Z,99090.81
2023-01-09T03:16:20.643Z,99100.09
2023-01-09T03:18:49.394Z,99089.34
2023-01-09T03:21:17.599Z,99097.22
2023-01-09T03:23:59.271Z,99084.41
2023-01-09T03:26:29.516Z,99089.59
2023-01-09T03:28:57.898Z,99081.50
2023-01-09T03:31:25.865Z,99077.22
2023-01-09T03:33:53.711Z,99074.59
2023-01-09T03:36:22.180Z,99086.00
2023-01-09T03:38:49.891Z,99082.44
2023-01-09T03:41:19.412Z,99076.00
2023-01-09T03:43:48.493Z,99079.34
2023-01-09T03:46:16.567Z,99073.22
2023-01-09T03:48:44.312Z,99066.06
2023-01-09T03:51:11.763Z,99065.63
2023-01-09T03:53:39.231Z,99058.44
2023-01-09T03:56:07.364Z,99058.34
2023-01-09T03:58:34.818Z,99068.66
2023-01-09T04:01:04.041Z,99067.09
2023-01-09T04:03:31.939Z,99068.53
2023-01-09T04:05:59.413Z,99060.31
2023-01-09T04:08:26.914Z,99062.38
2023-01-09T04:10:54.630Z,99070.63
2023-01-09T04:13:22.316Z,99055.63
2023-01-09T04:15:49.882Z,99058.47
2023-01-09T04:18:17.573Z,99053.78
2023-01-09T04:20:47.512Z,99061.69
2023-01-09T04:23:15.199Z,99062.25
2023-01-09T04:25:43.474Z,99071.91
2023-01-09T04:28:11.150Z,99068.25
2023-01-09T04:30:38.566Z,99069.31
2023-01-09T04:33:06.290Z,99072.09
2023-01-09T04:35:33.756Z,99070.03
2023-01-09T04:38:01.149Z,99068.91
2023-01-09T04:40:28.879Z,99071.09
2023-01-09T04:42:56.280Z,99073.06
2023-01-09T04:45:23.795Z,99071.25
2023-01-09T04:47:51.566Z,99059.25
2023-01-09T04:50:19.276Z,99063.75
2023-01-09T04:52:46.914Z,99063.87
2023-01-09T04:55:15.070Z,99061.78
2023-01-09T04:57:42.581Z,99068.38
2023-01-09T05:00:12.284Z,99062.34
2023-01-09T05:02:40.937Z,99062.78
2023-01-09T05:05:11.883Z,99063.78
2023-01-09T05:07:40.049Z,99059.06
2023-01-09T05:10:09.341Z,99058.50
2023-01-09T05:12:37.415Z,99054.25
2023-01-09T05:15:07.303Z,99063.19
2023-01-09T05:17:35.074Z,99050.50
2023-01-09T05:20:02.617Z,99051.41
2023-01-09T05:22:30.645Z,99048.34
2023-01-09T05:25:00.349Z,99049.88
2023-01-09T05:27:28.029Z,99042.91
2023-01-09T05:29:56.085Z,99044.75
2023-01-09T05:32:23.643Z,99045.00
2023-01-09T05:34:51.173Z,99045.41
2023-01-09T05:37:18.868Z,99051.59
2023-01-09T05:39:46.256Z,99055.00
2023-01-09T05:42:13.640Z,99051.66
2023-01-09T05:44:41.331Z,99054.03
2023-01-09T05:47:08.742Z,99062.09
2023-01-09T05:49:36.128Z,99058.50
2023-01-09T05:52:04.953Z,99052.59
2023-01-09T05:54:32.400Z,99045.41
2023-01-09T05:56:59.823Z,99045.41
2023-01-09T05:59:27.537Z,99046.19
2023-01-09T06:01:54.973Z,99050.69
2023-01-09T06:04:22.877Z,99042.38
2023-01-09T06:06:50.252Z,99048.41
2023-01-09T06:09:17.953Z,99048.50
2023-01-09T06:11:45.805Z,99059.16
2023-01-09T06:14:13.491Z,99058.59
2023-01-09T06:16:40.920Z,99057.16
2023-01-09T06:19:08.876Z,99057.84
2023-01-09T06:21:36.288Z,99060.06
2023-01-09T06:24:03.861Z,99059.69
2023-01-09T06:26:32.665Z,99057.28
2023-01-09T06:29:01.614Z,99064.75
2023-01-09T06:31:29.305Z,99068.91
2023-01-09T06:33:57.283Z,99054.78
2023-01-09T06:36:24.780Z,99066.75
2023-01-09T06:38:52.205Z,99067.91
2023-01-09T06:41:19.912Z,99068.59
2023-01-09T06:43:47.339Z,99062.44
2023-01-09T06:46:14.783Z,99069.50
2023-01-09T06:48:42.583Z,99068.38
2023-01-09T06:51:10.085Z,99069.16
2023-01-09T06:53:37.523Z,99071.37
2023-01-09T06:56:05.712Z,99067.97
2023-01-09T06:58:33.139Z,99057.06
2023-01-09T07:01:03.830Z,99056.47
2023-01-09T07:03:33.689Z,99059.41
2023-01-09T07:06:01.331Z,99072.63
2023-01-09T07:08:28.772Z,99070.19
2023-01-09T07:10:56.528Z,99066.03
2023-01-09T07:13:23.933Z,99059.88
2023-01-09T07:15:53.624Z,99055.91
2023-01-09T07:18:21.429Z,99054.66
2023-01-09T07:20:49.309Z,99066.06
2023-01-09T07:23:18.845Z,99064.16
2023-01-09T07:25:46.635Z,99063.81
2023-01-09T07:28:14.035Z,99060.44
2023-01-09T07:30:41.467Z,99064.03
2023-01-09T07:33:09.404Z,99069.06
2023-01-09T07:35:37.878Z,99049.59
2023-01-09T07:38:05.341Z,99047.50
2023-01-09T07:40:33.163Z,99052.53
2023-01-09T07:43:00.635Z,99041.72
2023-01-09T07:45:28.474Z,99037.38
2023-01-09T07:47:56.433Z,99031.19
2023-01-09T07:50:23.920Z,99030.88
2023-01-09T07:52:51.383Z,99037.88
2023-01-09T07:55:19.084Z,99029.66
2023-01-09T07:57:51.228Z,99023.97
2023-01-09T08:00:21.071Z,99026.63
2023-01-09T08:02:54.878Z,99024.41
2023-01-09T08:05:22.556Z,99032.06
2023-01-09T08:07:51.455Z,99015.59
2023-01-09T08:10:19.898Z,99009.81
2023-01-09T08:12:48.429Z,99016.28
2023-01-09T08:15:16.799Z,99023.28
2023-01-09T08:17:45.551Z,99048.81
2023-01-09T08:20:15.877Z,99061.50
2023-01-09T08:22:49.601Z,99051.47
2023-01-09T08:25:17.914Z,99036.66
2023-01-09T08:27:46.045Z,99035.31
2023-01-09T08:30:14.617Z,99026.00
2023-01-09T08:32:43.583Z,99024.25
2023-01-09T08:35:11.390Z,99027.47
2023-01-09T08:37:38.852Z,99027.06
2023-01-09T08:40:06.814Z,99038.13
2023-01-09T08:42:53.300Z,99034.56
2023-01-09T08:45:39.291Z,99033.28
2023-01-09T08:48:07.346Z,99036.41
2023-01-09T08:50:34.852Z,99033.69
2023-01-09T08:53:02.486Z,99038.13
2023-01-09T08:55:30.346Z,99032.59
2023-01-09T08:57:57.862Z,99026.22
2023-01-09T09:00:26.196Z,99028.50
2023-01-09T09:02:55.793Z,99020.66
2023-01-09T09:05:24.852Z,99013.78
2023-01-09T09:07:56.107Z,99011.56
2023-01-09T09:10:25.544Z,99016.69
2023-01-09T09:12:55.191Z,99013.56
2023-01-09T09:15:26.606Z,99013.84
2023-01-09T09:18:02.047Z,99012.66
2023-01-09T09:20:32.475Z,98999.34
2023-01-09T09:23:00.485Z,98992.59
2023-01-09T09:25:28.452Z,99000.00
2023-01-09T09:28:01.053Z,98992.81
2023-01-09T09:30:28.983Z,98993.38
2023-01-09T09:32:56.584Z,99000.72
2023-01-09T09:35:24.077Z,98997.84
2023-01-09T09:37:59.727Z,98991.84
2023-01-09T09:40:52.341Z,98989.28
2023-01-09T09:43:38.639Z,98982.91
2023-01-09T09:46:15.252Z,98980.22
2023-01-09T09:48:49.900Z,98980.94
2023-01-09T09:51:28.395Z,98973.81
2023-01-09T09:54:14.109Z,98986.34
2023-01-09T09:56:53.912Z,98980.59
2023-01-09T09:59:25.555Z,98977.22
2023-01-09T10:01:57.471Z,98994.56
2023-01-09T10:04:27.410Z,98986.56
2023-01-09T10:07:01.862Z,98980.50
2023-01-09T10:10:00.372Z,98969.06
2023-01-09T10:12:34.413Z,98973.22
2023-01-09T10:15:21.188Z,98968.12
2023-01-09T10:18:12.919Z,98964.63
2023-01-09T10:20:49.144Z,98974.75
2023-01-09T10:23:47.621Z,98964.81
2023-01-09T10:26:27.233Z,98965.16
2023-01-09T10:29:09.709Z,98941.16
2023-01-09T10:31:45.606Z,98952.34
2023-01-09T10:34:19.088Z,98956.25
2023-01-09T10:37:02.585Z,98946.78
2023-01-09T10:39:47.228Z,98951.72
2023-01-09T10:42:30.729Z,98931.59
2023-01-09T10:45:15.797Z,98938.84
2023-01-09T10:47:44.390Z,98931.78
2023-01-09T10:50:25.054Z,98920.22
2023-01-09T10:52:54.998Z,98910.13
2023-01-09T10:55:29.547Z,98921.75
2023-01-09T10:58:02.040Z,98911.06
2023-01-09T11:00:30.495Z,98899.91
2023-01-09T11:03:00.385Z,98902.59
2023-01-09T11:05:32.706Z,98889.88
2023-01-09T11:08:17.633Z,98890.16
2023-01-09T11:10:56.865Z,98889.84
2023-01-09T11:13:26.594Z,98884.19
2023-01-09T11:16:20.148Z,98876.38
2023-01-09T11:18:53.585Z,98876.97
2023-01-09T11:21:36.240Z,98883.25
2023-01-09T11:24:29.525Z,98883.13
2023-01-09T11:27:23.366Z,98879.78
2023-01-09T11:30:27.858Z,98881.72
2023-01-09T11:32:56.556Z,98866.16
2023-01-09T11:35:34.790Z,98874.72
2023-01-09T11:38:05.515Z,98863.13
2023-01-09T11:40:45.414Z,98861.97
2023-01-09T11:43:33.170Z,98859.94
2023-01-09T11:46:04.546Z,98861.91
2023-01-09T11:48:43.520Z,98856.94
2023-01-09T11:51:28.828Z,98862.84
2023-01-09T11:54:06.260Z,98862.03
2023-01-09T11:56:37.677Z,98867.06
2023-01-09T11:59:17.115Z,98855.69
2023-01-09T12:02:09.769Z,98852.47
2023-01-09T12:04:48.456Z,98851.34
2023-01-09T12:07:15.978Z,98840.81
2023-01-09T12:09:58.015Z,98835.03
2023-01-09T12:12:50.976Z,98833.25
2023-01-09T12:15:31.321Z,98830.09
2023-01-09T12:18:08.540Z,98824.69
2023-01-09T12:20:46.972Z,98835.28
2023-01-09T12:23:19.207Z,98842.84
2023-01-09T12:26:18.513Z,98839.69
2023-01-09T12:29:12.701Z,98830.09
2023-01-09T12:31:55.524Z,98819.56
2023-01-09T12:35:04.285Z,98817.47
2023-01-09T12:37:56.472Z,98819.13
2023-01-09T12:40:42.364Z,98813.53
2023-01-09T12:43:20.368Z,98807.19
2023-01-09T12:45:53.958Z,98810.78
2023-01-09T12:48:27.446Z,98806.53
2023-01-09T12:51:16.691Z,98805.66
2023-01-09T12:53:50.361Z,98797.91
2023-01-09T12:56:25.242Z,98787.84
2023-01-09T12:59:33.199Z,98796.37
2023-01-09T13:02:07.794Z,98790.94
2023-01-09T13:04:42.265Z,98783.56
2023-01-09T13:07:16.370Z,98783.22
2023-01-09T13:10:22.083Z,98778.03
2023-01-09T13:12:50.515Z,98771.06
2023-01-09T13:15:37.870Z,98777.25
2023-01-09T13:18:22.170Z,98779.31
2023-01-09T13:20:53.175Z,98776.94
2023-01-09T13:23:29.519Z,98784.56
2023-01-09T13:26:02.916Z,98797.31
2023-01-09T13:29:03.193Z,98796.59
2023-01-09T13:32:08.538Z,98800.12
2023-01-09T13:34:37.429Z,98797.63
2023-01-09T13:37:05.611Z,98801.94
2023-01-09T13:39:37.949Z,98800.00
2023-01-09T13:42:25.976Z,98799.28
2023-01-09T13:44:55.995Z,98792.75
2023-01-09T13:47:28.331Z,98795.84
2023-01-09T13:50:02.074Z,98799.44
2023-01-09T13:52:40.998Z,98810.78
2023-01-09T13:55:25.179Z,98800.91
2023-01-09T13:58:05.627Z,98794.56
2023-01-09T14:00:36.220Z,98794.78
2023-01-09T14:03:31.397Z,98796.16
2023-01-09T14:05:59.344Z,98795.78
2023-01-09T14:08:28.952Z,98797.03
2023-01-09T14:11:00.160Z,98798.28
2023-01-09T14:13:29.611Z,98810.78
2023-01-09T14:16:11.953Z,98809.06
2023-01-09T14:19:06.421Z,98818.44
2023-01-09T14:21:54.668Z,98803.66
2023-01-09T14:24:27.658Z,98811.44
2023-01-09T14:26:58.004Z,98802.38
2023-01-09T14:29:32.252Z,98798.28
2023-01-09T14:32:29.807Z,98787.34
2023-01-09T14:35:20.436Z,98786.66
2023-01-09T14:38:04.892Z,98782.31
2023-01-09T14:40:33.372Z,98783.38
2023-01-09T14:43:08.717Z,98782.53
2023-01-09T14:45:39.145Z,98794.03
2023-01-09T14:48:09.770Z,98791.97
2023-01-09T14:50:50.704Z,98802.75
2023-01-09T14:55:43.652Z,98798.28
2023-01-09T14:58:21.784Z,98789.87
2023-01-09T15:00:54.162Z,98802.22
2023-01-09T15:03:22.966Z,98802.91
2023-01-09T15:05:51.864Z,98804.56
2023-01-09T15:08:23.539Z,98805.19
2023-01-09T15:10:53.342Z,98811.81
2023-01-09T15:13:29.677Z,98808.84
2023-01-09T15:15:57.765Z,98802.97
2023-01-09T15:18:29.491Z,98802.66
2023-01-09T15:21:00.766Z,98797.78
2023-01-09T15:23:30.657Z,98808.09
2023-01-09T15:26:33.292Z,98814.81
2023-01-09T15:29:05.219Z,98818.34
2023-01-09T15:31:33.668Z,98813.53
2023-01-09T15:34:03.835Z,98812.78
2023-01-09T15:36:31.441Z,98804.50
2023-01-09T15:38:59.593Z,98807.94
2023-01-09T15:41:48.589Z,98802.84
2023-01-09T15:44:19.821Z,98793.47
2023-01-09T15:46:50.109Z,98798.66
2023-01-09T15:49:18.647Z,98784.78
2023-01-09T15:51:47.027Z,98783.28
2023-01-09T15:54:21.169Z,98769.78
2023-01-09T15:56:49.011Z,98764.66
2023-01-09T15:59:28.177Z,98755.88
2023-01-09T16:02:21.134Z,98750.78
2023-01-09T16:04:49.507Z,98754.78
2023-01-09T16:07:18.903Z,98749.69
2023-01-09T16:09:47.742Z,98746.50
2023-01-09T16:12:19.287Z,98750.81
2023-01-09T16:14:51.811Z,98753.63
2023-01-09T16:17:23.828Z,98747.47
2023-01-09T16:20:00.107Z,98754.41
2023-01-09T16:22:31.379Z,98745.72
2023-01-09T16:25:00.903Z,98746.66
2023-01-09T16:27:32.097Z,98751.87
2023-01-09T16:30:01.405Z,98737.94
2023-01-09T16:32:34.617Z,98739.66
2023-01-09T16:35:07.701Z,98743.91
2023-01-09T16:37:36.107Z,98737.72
2023-01-09T16:40:18.378Z,98740.88
2023-01-09T16:43:01.127Z,98736.31
2023-01-09T16:45:38.365Z,98737.16
2023-01-09T16:48:17.499Z,98740.31
2023-01-09T16:50:45.398Z,98739.34
2023-01-09T16:53:25.667Z,98736.22
2023-01-09T16:55:54.054Z,98741.38
2023-01-09T16:58:26.724Z,98735.25
2023-01-09T17:00:54.300Z,98731.84
2023-01-09T17:03:22.142Z,98724.84
2023-01-09T17:05:52.051Z,98726.66
2023-01-09T17:08:23.166Z,98717.09
2023-01-09T17:10:52.027Z,98724.12
2023-01-09T17:13:19.617Z,98725.66
2023-01-09T17:15:47.137Z,98736.69
2023-01-09T17:18:16.715Z,98727.41
2023-01-09T17:20:46.321Z,98729.69
2023-01-09T17:23:13.803Z,98727.50
2023-01-09T17:26:00.739Z,98729.28
2023-01-09T17:28:34.457Z,98725.94
2023-01-09T17:31:09.133Z,98722.47
2023-01-09T17:33:37.482Z,98719.50
2023-01-09T17:36:27.676Z,98720.47
2023-01-09T17:38:55.269Z,98717.06
2023-01-09T17:41:24.687Z,98720.53
2023-01-09T17:43:52.345Z,98714.56
2023-01-09T17:46:40.739Z,98704.19
2023-01-09T17:49:15.446Z,98703.81
2023-01-09T17:51:42.970Z,98702.03
2023-01-09T17:54:11.167Z,98686.78
2023-01-09T17:56:40.528Z,98694.50
2023-01-09T17:59:10.067Z,98699.38
2023-01-09T18:01:37.838Z,98701.44
2023-01-09T18:04:05.575Z,98703.34
2023-01-09T18:06:33.131Z,98703.88
2023-01-09T18:09:00.909Z,98702.59
2023-01-09T18:11:28.623Z,98699.31
2023-01-09T18:13:56.456Z,98693.03
2023-01-09T18:16:26.533Z,98682.81
2023-01-09T18:18:57.929Z,98683.59
2023-01-09T18:21:28.452Z,98691.38
2023-01-09T18:23:57.978Z,98688.66
2023-01-09T18:26:25.825Z,98684.22
2023-01-09T18:28:58.693Z,98673.69
2023-01-09T18:31:28.744Z,98676.88
2023-01-09T18:34:02.699Z,98677.22
2023-01-09T18:36:30.769Z,98674.47
2023-01-09T18:39:00.285Z,98678.66
2023-01-09T18:41:29.721Z,98669.03
2023-01-09T18:43:59.427Z,98659.66
2023-01-09T18:46:30.860Z,98655.84
2023-01-09T18:49:04.901Z,98663.41
2023-01-09T18:51:35.380Z,98663.97
2023-01-09T18:54:03.886Z,98653.53
2023-01-09T18:56:31.317Z,98654.41
2023-01-09T18:58:59.323Z,98663.75
2023-01-09T19:01:29.777Z,98656.06
2023-01-09T19:03:59.753Z,98647.50
2023-01-09T19:06:29.087Z,98643.09
2023-01-09T19:08:59.161Z,98649.28
2023-01-09T19:11:28.085Z,98645.94
2023-01-09T19:13:55.905Z,98645.22
2023-01-09T19:16:25.134Z,98643.16
2023-01-09T19:18:53.494Z,98644.75
2023-01-09T19:21:23.605Z,98639.47
2023-01-09T19:23:51.875Z,98631.03
2023-01-09T19:26:23.746Z,98623.41
2023-01-09T19:28:55.073Z,98628.53
2023-01-09T19:31:24.882Z,98634.78
2023-01-09T19:33:54.698Z,98635.06
2023-01-09T19:36:22.824Z,98640.25
2023-01-09T19:38:59.394Z,98630.13
2023-01-09T19:41:27.840Z,98638.94
2023-01-09T19:43:57.583Z,98633.25
2023-01-09T19:46:26.494Z,98636.50
2023-01-09T19:48:55.071Z,98633.12
2023-01-09T19:51:26.107Z,98623.88
2023-01-09T19:56:35.109Z,98619.53
2023-01-09T19:59:04.311Z,98617.56
2023-01-09T20:01:35.344Z,98617.97
2023-01-09T20:04:10.564Z,98611.63
2023-01-09T20:06:41.538Z,98614.34
2023-01-09T20:09:13.298Z,98610.34
2023-01-09T20:11:41.921Z,98618.88
2023-01-09T20:14:14.425Z,98598.72
2023-01-09T20:16:42.684Z,98602.12
2023-01-09T20:19:13.364Z,98600.13
2023-01-09T20:21:43.241Z,98598.37
2023-01-09T20:24:15.494Z,98593.13
2023-01-09T20:26:43.681Z,98592.53
2023-01-09T20:29:12.776Z,98594.25
2023-01-09T20:31:40.505Z,98588.00
2023-01-09T20:34:13.383Z,98585.78
2023-01-09T20:36:41.568Z,98565.06
2023-01-09T20:39:11.600Z,98576.75
2023-01-09T20:41:39.120Z,98574.00
2023-01-09T20:44:13.142Z,98571.38
2023-01-09T20:46:43.630Z,98578.66
2023-01-09T20:49:13.745Z,98568.69
2023-01-09T20:51:43.879Z,98568.81
2023-01-09T20:54:13.498Z,98568.72
2023-01-09T20:56:41.357Z,98563.16
2023-01-09T20:59:13.011Z,98563.91
2023-01-09T21:01:40.822Z,98564.66
2023-01-09T21:04:08.880Z,98570.91
2023-01-09T21:06:36.420Z,98562.47
2023-01-09T21:09:05.109Z,98561.81
2023-01-09T21:11:32.949Z,98568.41
2023-01-09T21:14:00.473Z,98562.50
2023-01-09T21:16:28.538Z,98562.06
2023-01-09T21:18:55.979Z,98568.00
2023-01-09T21:21:26.265Z,98566.44
2023-01-09T21:23:57.536Z,98567.31
2023-01-09T21:26:27.629Z,98569.75
2023-01-09T21:28:56.742Z,98565.53
2023-01-09T21:31:28.676Z,98570.97
2023-01-09T21:33:56.533Z,98571.66
2023-01-09T21:36:24.023Z,98568.22
2023-01-09T21:38:54.345Z,98574.09
2023-01-09T21:41:40.448Z,98575.06
2023-01-09T21:44:30.321Z,98573.59
2023-01-09T21:47:00.218Z,98576.19
2023-01-09T21:49:31.205Z,98581.59
2023-01-09T21:51:59.096Z,98577.91
2023-01-09T21:54:26.515Z,98577.03
2023-01-09T21:56:54.824Z,98574.97
2023-01-09T21:59:22.899Z,98563.94
2023-01-09T22:01:50.987Z,98574.03
2023-01-09T22:04:21.212Z,98566.94
2023-01-09T22:06:48.719Z,98575.78
2023-01-09T22:09:16.649Z,98579.28
2023-01-09T22:11:44.621Z,98584.69
2023-01-09T22:14:17.004Z,98582.13
2023-01-09T22:16:45.529Z,98592.78
2023-01-09T22:19:14.169Z,98579.19
2023-01-09T22:21:41.595Z,98584.19
2023-01-09T22:24:12.976Z,98577.50
2023-01-09T22:26:40.565Z,98580.84
2023-01-09T22:29:08.691Z,98575.66
2023-01-09T22:31:39.738Z,98581.63
2023-01-09T22:34:07.606Z,98585.78
2023-01-09T22:36:35.384Z,98582.41
2023-01-09T22:39:02.979Z,98577.94
2023-01-09T22:41:30.858Z,98580.53
2023-01-09T22:43:58.895Z,98574.91
2023-01-09T22:46:26.468Z,98575.56
2023-01-09T22:48:54.121Z,98569.63
2023-01-09T22:51:22.011Z,98578.56
2023-01-09T22:53:50.263Z,98573.75
2023-01-09T22:56:19.773Z,98574.25
2023-01-09T22:58:55.175Z,98582.78
2023-01-09T23:01:22.947Z,98578.38
2023-01-09T23:03:50.618Z,98581.88
2023-01-09T23:06:20.892Z,98577.19
2023-01-09T23:08:50.631Z,98573.59
2023-01-09T23:11:44.994Z,98577.78
2023-01-09T23:14:13.077Z,98575.16
2023-01-09T23:16:41.116Z,98566.81
2023-01-09T23:19:09.908Z,98571.00
2023-01-09T23:21:37.502Z,98570.44
2023-01-09T23:24:06.985Z,98565.06
2023-01-09T23:26:35.127Z,98571.06
2023-01-09T23:29:02.570Z,98565.16
2023-01-09T23:31:30.289Z,98568.72
2023-01-09T23:33:58.032Z,98566.03
2023-01-09T23:36:25.396Z,98563.94
2023-01-09T23:38:53.274Z,98563.81
2023-01-09T23:41:22.432Z,98563.34
2023-01-09T23:43:49.807Z,98566.13
2023-01-09T23:46:17.493Z,98565.94
2023-01-09T23:48:44.870Z,98559.75
2023-01-09T23:51:12.248Z,98560.78
2023-01-09T23:53:39.935Z,98558.59
2023-01-09T23:56:07.433Z,98562.34
2023-01-09T23:58:36.038Z,98565.81
